sensor_id;sensor_type;location;lat;lon;timestamp;temperature;humidity
9564;DHT22;4820;50.870;4.702;2023-04-03T00:00:22;5.30;99.90
9564;DHT22;4820;50.870;4.702;2023-04-03T00:02:48;5.30;99.90
9564;DHT22;4820;50.870;4.702;2023-04-03T00:05:16;5.40;99.90
9564;DHT22;4820;50.870;4.702;2023-04-03T00:07:41;5.40;99.90
9564;DHT22;4820;50.870;4.702;2023-04-03T00:10:08;5.40;99.90
9564;DHT22;4820;50.870;4.702;2023-04-03T00:12:34;5.30;99.90
9564;DHT22;4820;50.870;4.702;2023-04-03T00:15:00;5.30;99.90
9564;DHT22;4820;50.870;4.702;2023-04-03T00:17:26;5.20;99.90
9564;DHT22;4820;50.870;4.702;2023-04-03T00:19:51;5.10;99.90
9564;DHT22;4820;50.870;4.702;2023-04-03T00:22:17;5.10;99.90
9564;DHT22;4820;50.870;4.702;2023-04-03T00:24:43;5.00;99.90
9564;DHT22;4820;50.870;4.702;2023-04-03T00:27:08;5.00;99.90
9564;DHT22;4820;50.870;4.702;2023-04-03T00:29:34;5.00;99.90
9564;DHT22;4820;50.870;4.702;2023-04-03T00:32:01;4.90;99.90
9564;DHT22;4820;50.870;4.702;2023-04-03T00:34:26;4.90;99.90
9564;DHT22;4820;50.870;4.702;2023-04-03T00:36:52;4.90;99.90
9564;DHT22;4820;50.870;4.702;2023-04-03T00:39:19;4.90;99.90
9564;DHT22;4820;50.870;4.702;2023-04-03T00:41:45;4.90;99.90
9564;DHT22;4820;50.870;4.702;2023-04-03T00:47:05;4.90;99.90
9564;DHT22;4820;50.870;4.702;2023-04-03T00:49:32;4.80;99.90
9564;DHT22;4820;50.870;4.702;2023-04-03T00:51:59;4.80;99.90
9564;DHT22;4820;50.870;4.702;2023-04-03T00:54:26;4.80;99.90
9564;DHT22;4820;50.870;4.702;2023-04-03T00:56:53;4.90;99.90
9564;DHT22;4820;50.870;4.702;2023-04-03T00:59:22;4.90;99.90
9564;DHT22;4820;50.870;4.702;2023-04-03T01:01:52;4.80;99.90
9564;DHT22;4820;50.870;4.702;2023-04-03T01:04:35;4.80;99.90
9564;DHT22;4820;50.870;4.702;2023-04-03T01:07:04;4.80;99.90
9564;DHT22;4820;50.870;4.702;2023-04-03T01:09:31;4.80;99.90
9564;DHT22;4820;50.870;4.702;2023-04-03T01:12:21;4.80;99.90
9564;DHT22;4820;50.870;4.702;2023-04-03T01:14:53;4.80;99.90
9564;DHT22;4820;50.870;4.702;2023-04-03T01:17:47;4.80;99.90
9564;DHT22;4820;50.870;4.702;2023-04-03T01:20:36;4.80;99.90
9564;DHT22;4820;50.870;4.702;2023-04-03T01:25:50;4.60;99.90
9564;DHT22;4820;50.870;4.702;2023-04-03T01:28:38;4.60;99.90
9564;DHT22;4820;50.870;4.702;2023-04-03T01:32:01;4.50;99.90
9564;DHT22;4820;50.870;4.702;2023-04-03T01:34:02;4.50;99.90
9564;DHT22;4820;50.870;4.702;2023-04-03T01:36:30;4.50;99.90
9564;DHT22;4820;50.870;4.702;2023-04-03T01:38:58;4.50;99.90
9564;DHT22;4820;50.870;4.702;2023-04-03T01:41:27;4.50;99.90
9564;DHT22;4820;50.870;4.702;2023-04-03T01:43:54;4.50;99.90
9564;DHT22;4820;50.870;4.702;2023-04-03T01:46:20;4.40;99.90
9564;DHT22;4820;50.870;4.702;2023-04-03T01:48:47;4.40;99.90
9564;DHT22;4820;50.870;4.702;2023-04-03T01:51:13;4.40;99.90
9564;DHT22;4820;50.870;4.702;2023-04-03T01:53:39;4.40;99.90
9564;DHT22;4820;50.870;4.702;2023-04-03T01:56:06;4.40;99.90
9564;DHT22;4820;50.870;4.702;2023-04-03T01:58:32;4.40;99.90
9564;DHT22;4820;50.870;4.702;2023-04-03T02:00:58;4.30;99.90
9564;DHT22;4820;50.870;4.702;2023-04-03T02:03:23;4.30;99.90
9564;DHT22;4820;50.870;4.702;2023-04-03T02:05:50;4.30;99.90
9564;DHT22;4820;50.870;4.702;2023-04-03T02:08:16;4.30;99.90
9564;DHT22;4820;50.870;4.702;2023-04-03T02:10:49;4.30;99.90
9564;DHT22;4820;50.870;4.702;2023-04-03T02:13:15;4.30;99.90
9564;DHT22;4820;50.870;4.702;2023-04-03T02:15:41;4.20;99.90
9564;DHT22;4820;50.870;4.702;2023-04-03T02:18:07;4.20;99.90
9564;DHT22;4820;50.870;4.702;2023-04-03T02:20:33;4.20;99.90
9564;DHT22;4820;50.870;4.702;2023-04-03T02:22:59;4.20;99.90
9564;DHT22;4820;50.870;4.702;2023-04-03T02:25:25;4.20;99.90
9564;DHT22;4820;50.870;4.702;2023-04-03T02:27:52;4.20;99.90
9564;DHT22;4820;50.870;4.702;2023-04-03T02:30:18;4.10;99.90
9564;DHT22;4820;50.870;4.702;2023-04-03T02:32:45;4.00;99.90
9564;DHT22;4820;50.870;4.702;2023-04-03T02:35:11;4.00;99.90
9564;DHT22;4820;50.870;4.702;2023-04-03T02:37:37;4.00;99.90
9564;DHT22;4820;50.870;4.702;2023-04-03T02:40:04;4.00;99.90
9564;DHT22;4820;50.870;4.702;2023-04-03T02:42:30;4.00;99.90
9564;DHT22;4820;50.870;4.702;2023-04-03T02:44:55;4.00;99.90
9564;DHT22;4820;50.870;4.702;2023-04-03T02:47:21;4.00;99.90
9564;DHT22;4820;50.870;4.702;2023-04-03T02:49:47;4.00;99.90
9564;DHT22;4820;50.870;4.702;2023-04-03T02:52:13;4.00;99.90
9564;DHT22;4820;50.870;4.702;2023-04-03T02:54:40;4.00;99.90
9564;DHT22;4820;50.870;4.702;2023-04-03T02:57:06;4.00;99.90
9564;DHT22;4820;50.870;4.702;2023-04-03T02:59:38;3.90;99.90
9564;DHT22;4820;50.870;4.702;2023-04-03T03:02:07;3.90;99.90
9564;DHT22;4820;50.870;4.702;2023-04-03T03:04:34;3.90;99.90
9564;DHT22;4820;50.870;4.702;2023-04-03T03:06:59;3.90;99.90
9564;DHT22;4820;50.870;4.702;2023-04-03T03:09:25;3.90;99.90
9564;DHT22;4820;50.870;4.702;2023-04-03T03:11:52;3.90;99.90
9564;DHT22;4820;50.870;4.702;2023-04-03T03:14:18;3.90;99.90
9564;DHT22;4820;50.870;4.702;2023-04-03T03:16:43;3.90;99.90
9564;DHT22;4820;50.870;4.702;2023-04-03T03:19:10;3.90;99.90
9564;DHT22;4820;50.870;4.702;2023-04-03T03:21:36;3.90;99.90
9564;DHT22;4820;50.870;4.702;2023-04-03T03:24:02;3.80;99.90
9564;DHT22;4820;50.870;4.702;2023-04-03T03:26:28;3.90;99.90
9564;DHT22;4820;50.870;4.702;2023-04-03T03:28:53;3.80;99.90
9564;DHT22;4820;50.870;4.702;2023-04-03T03:31:19;3.80;99.90
9564;DHT22;4820;50.870;4.702;2023-04-03T03:33:45;3.80;99.90
9564;DHT22;4820;50.870;4.702;2023-04-03T03:36:10;3.80;99.90
9564;DHT22;4820;50.870;4.702;2023-04-03T03:38:36;3.80;99.90
9564;DHT22;4820;50.870;4.702;2023-04-03T03:41:02;3.70;99.90
9564;DHT22;4820;50.870;4.702;2023-04-03T03:43:28;3.70;99.90
9564;DHT22;4820;50.870;4.702;2023-04-03T03:45:54;3.70;99.90
9564;DHT22;4820;50.870;4.702;2023-04-03T03:48:21;3.80;99.90
9564;DHT22;4820;50.870;4.702;2023-04-03T03:50:47;3.80;99.90
9564;DHT22;4820;50.870;4.702;2023-04-03T03:53:13;3.80;99.90
9564;DHT22;4820;50.870;4.702;2023-04-03T03:55:38;3.90;99.90
9564;DHT22;4820;50.870;4.702;2023-04-03T03:58:04;3.90;99.90
9564;DHT22;4820;50.870;4.702;2023-04-03T04:00:30;4.00;99.90
9564;DHT22;4820;50.870;4.702;2023-04-03T04:02:55;4.00;99.90
9564;DHT22;4820;50.870;4.702;2023-04-03T04:05:23;4.10;99.90
9564;DHT22;4820;50.870;4.702;2023-04-03T04:07:48;4.10;99.90
9564;DHT22;4820;50.870;4.702;2023-04-03T04:10:14;4.10;99.90
9564;DHT22;4820;50.870;4.702;2023-04-03T04:12:40;4.10;99.90
9564;DHT22;4820;50.870;4.702;2023-04-03T04:15:06;4.00;99.90
9564;DHT22;4820;50.870;4.702;2023-04-03T04:17:32;4.00;99.90
9564;DHT22;4820;50.870;4.702;2023-04-03T04:19:58;4.00;99.90
9564;DHT22;4820;50.870;4.702;2023-04-03T04:22:23;4.00;99.90
9564;DHT22;4820;50.870;4.702;2023-04-03T04:24:49;4.00;99.90
9564;DHT22;4820;50.870;4.702;2023-04-03T04:27:15;4.00;99.90
9564;DHT22;4820;50.870;4.702;2023-04-03T04:29:41;4.00;99.90
9564;DHT22;4820;50.870;4.702;2023-04-03T04:32:07;4.00;99.90
9564;DHT22;4820;50.870;4.702;2023-04-03T04:34:34;4.00;99.90
9564;DHT22;4820;50.870;4.702;2023-04-03T04:37:00;4.00;99.90
9564;DHT22;4820;50.870;4.702;2023-04-03T04:39:26;4.00;99.90
9564;DHT22;4820;50.870;4.702;2023-04-03T04:41:51;4.00;99.90
9564;DHT22;4820;50.870;4.702;2023-04-03T04:44:17;3.90;99.90
9564;DHT22;4820;50.870;4.702;2023-04-03T04:46:43;3.90;99.90
9564;DHT22;4820;50.870;4.702;2023-04-03T04:49:09;3.90;99.90
9564;DHT22;4820;50.870;4.702;2023-04-03T04:51:34;3.80;99.90
9564;DHT22;4820;50.870;4.702;2023-04-03T04:54:00;3.80;99.90
9564;DHT22;4820;50.870;4.702;2023-04-03T04:56:26;3.80;99.90
9564;DHT22;4820;50.870;4.702;2023-04-03T04:58:52;3.80;99.90
9564;DHT22;4820;50.870;4.702;2023-04-03T05:01:17;3.80;99.90
9564;DHT22;4820;50.870;4.702;2023-04-03T05:03:44;3.80;99.90
9564;DHT22;4820;50.870;4.702;2023-04-03T05:06:10;3.80;99.90
9564;DHT22;4820;50.870;4.702;2023-04-03T05:08:35;3.70;99.90
9564;DHT22;4820;50.870;4.702;2023-04-03T05:11:01;3.70;99.90
9564;DHT22;4820;50.870;4.702;2023-04-03T05:13:27;3.70;99.90
9564;DHT22;4820;50.870;4.702;2023-04-03T05:15:52;3.70;99.90
9564;DHT22;4820;50.870;4.702;2023-04-03T05:18:18;3.60;99.90
9564;DHT22;4820;50.870;4.702;2023-04-03T05:20:44;3.60;99.90
9564;DHT22;4820;50.870;4.702;2023-04-03T05:23:10;3.60;99.90
9564;DHT22;4820;50.870;4.702;2023-04-03T05:25:40;3.60;99.90
9564;DHT22;4820;50.870;4.702;2023-04-03T05:28:06;3.60;99.90
9564;DHT22;4820;50.870;4.702;2023-04-03T05:30:32;3.50;99.90
9564;DHT22;4820;50.870;4.702;2023-04-03T05:32:58;3.50;99.90
9564;DHT22;4820;50.870;4.702;2023-04-03T05:35:25;3.50;99.90
9564;DHT22;4820;50.870;4.702;2023-04-03T05:37:51;3.40;99.90
9564;DHT22;4820;50.870;4.702;2023-04-03T05:40:18;3.40;99.90
9564;DHT22;4820;50.870;4.702;2023-04-03T05:42:44;3.40;99.90
9564;DHT22;4820;50.870;4.702;2023-04-03T05:45:10;3.40;99.90
9564;DHT22;4820;50.870;4.702;2023-04-03T05:47:35;3.40;99.90
9564;DHT22;4820;50.870;4.702;2023-04-03T05:50:02;3.40;99.90
9564;DHT22;4820;50.870;4.702;2023-04-03T05:52:30;3.40;99.90
9564;DHT22;4820;50.870;4.702;2023-04-03T05:55:00;3.40;99.90
9564;DHT22;4820;50.870;4.702;2023-04-03T05:57:25;3.40;99.90
9564;DHT22;4820;50.870;4.702;2023-04-03T05:59:53;3.40;99.90
9564;DHT22;4820;50.870;4.702;2023-04-03T06:02:22;3.40;99.90
9564;DHT22;4820;50.870;4.702;2023-04-03T06:04:48;3.40;99.90
9564;DHT22;4820;50.870;4.702;2023-04-03T06:07:20;3.40;99.90
9564;DHT22;4820;50.870;4.702;2023-04-03T06:09:50;3.50;99.90
9564;DHT22;4820;50.870;4.702;2023-04-03T06:12:17;3.50;99.90
9564;DHT22;4820;50.870;4.702;2023-04-03T06:14:42;3.50;99.90
9564;DHT22;4820;50.870;4.702;2023-04-03T06:17:08;3.50;99.90
9564;DHT22;4820;50.870;4.702;2023-04-03T06:19:35;3.60;99.90
9564;DHT22;4820;50.870;4.702;2023-04-03T06:22:02;3.60;99.90
9564;DHT22;4820;50.870;4.702;2023-04-03T06:24:28;3.60;99.90
9564;DHT22;4820;50.870;4.702;2023-04-03T06:26:55;3.80;99.90
9564;DHT22;4820;50.870;4.702;2023-04-03T06:29:21;3.80;99.90
9564;DHT22;4820;50.870;4.702;2023-04-03T06:31:47;3.80;99.90
9564;DHT22;4820;50.870;4.702;2023-04-03T06:34:13;3.90;99.90
9564;DHT22;4820;50.870;4.702;2023-04-03T06:36:39;3.90;99.90
9564;DHT22;4820;50.870;4.702;2023-04-03T06:39:05;3.90;99.90
9564;DHT22;4820;50.870;4.702;2023-04-03T06:41:32;3.90;99.90
9564;DHT22;4820;50.870;4.702;2023-04-03T06:43:59;4.00;99.90
9564;DHT22;4820;50.870;4.702;2023-04-03T06:46:26;4.00;99.90
9564;DHT22;4820;50.870;4.702;2023-04-03T06:48:52;4.10;99.90
9564;DHT22;4820;50.870;4.702;2023-04-03T06:51:26;4.10;99.90
9564;DHT22;4820;50.870;4.702;2023-04-03T06:53:54;4.20;99.90
9564;DHT22;4820;50.870;4.702;2023-04-03T06:56:20;4.10;99.90
9564;DHT22;4820;50.870;4.702;2023-04-03T06:58:48;4.20;99.90
9564;DHT22;4820;50.870;4.702;2023-04-03T07:01:15;4.20;99.90
9564;DHT22;4820;50.870;4.702;2023-04-03T07:03:43;4.20;99.90
9564;DHT22;4820;50.870;4.702;2023-04-03T07:06:11;4.30;99.90
9564;DHT22;4820;50.870;4.702;2023-04-03T07:08:38;4.30;99.90
9564;DHT22;4820;50.870;4.702;2023-04-03T07:11:04;4.40;99.90
9564;DHT22;4820;50.870;4.702;2023-04-03T07:13:31;4.40;99.90
9564;DHT22;4820;50.870;4.702;2023-04-03T07:15:58;4.50;99.90
9564;DHT22;4820;50.870;4.702;2023-04-03T07:18:24;4.50;99.90
9564;DHT22;4820;50.870;4.702;2023-04-03T07:20:51;4.50;99.90
9564;DHT22;4820;50.870;4.702;2023-04-03T07:23:17;4.50;99.90
9564;DHT22;4820;50.870;4.702;2023-04-03T07:25:47;4.60;99.90
9564;DHT22;4820;50.870;4.702;2023-04-03T07:28:14;4.60;99.90
9564;DHT22;4820;50.870;4.702;2023-04-03T07:33:09;4.80;99.90
9564;DHT22;4820;50.870;4.702;2023-04-03T07:35:35;4.90;99.90
9564;DHT22;4820;50.870;4.702;2023-04-03T07:38:00;4.90;99.90
9564;DHT22;4820;50.870;4.702;2023-04-03T07:40:26;5.00;99.90
9564;DHT22;4820;50.870;4.702;2023-04-03T07:42:52;5.00;99.90
9564;DHT22;4820;50.870;4.702;2023-04-03T07:45:18;5.10;99.90
9564;DHT22;4820;50.870;4.702;2023-04-03T07:47:44;5.20;99.90
9564;DHT22;4820;50.870;4.702;2023-04-03T07:50:10;5.30;99.90
9564;DHT22;4820;50.870;4.702;2023-04-03T07:52:36;5.30;99.90
9564;DHT22;4820;50.870;4.702;2023-04-03T07:55:01;5.40;99.90
9564;DHT22;4820;50.870;4.702;2023-04-03T07:57:27;5.50;99.90
9564;DHT22;4820;50.870;4.702;2023-04-03T07:59:54;5.60;99.90
9564;DHT22;4820;50.870;4.702;2023-04-03T08:02:21;5.70;99.90
9564;DHT22;4820;50.870;4.702;2023-04-03T08:04:47;5.90;99.90
9564;DHT22;4820;50.870;4.702;2023-04-03T08:07:14;5.90;99.90
9564;DHT22;4820;50.870;4.702;2023-04-03T08:09:39;5.90;99.90
9564;DHT22;4820;50.870;4.702;2023-04-03T08:12:05;5.90;99.90
9564;DHT22;4820;50.870;4.702;2023-04-03T08:14:34;5.90;99.90
9564;DHT22;4820;50.870;4.702;2023-04-03T08:17:00;6.00;99.90
9564;DHT22;4820;50.870;4.702;2023-04-03T08:19:28;5.90;99.90
9564;DHT22;4820;50.870;4.702;2023-04-03T08:21:54;6.00;99.90
9564;DHT22;4820;50.870;4.702;2023-04-03T08:24:20;6.00;99.90
9564;DHT22;4820;50.870;4.702;2023-04-03T08:26:46;6.10;99.90
9564;DHT22;4820;50.870;4.702;2023-04-03T08:29:11;6.20;99.90
9564;DHT22;4820;50.870;4.702;2023-04-03T08:31:37;6.30;99.90
9564;DHT22;4820;50.870;4.702;2023-04-03T08:34:03;6.40;99.90
9564;DHT22;4820;50.870;4.702;2023-04-03T08:36:29;6.50;99.90
9564;DHT22;4820;50.870;4.702;2023-04-03T08:38:55;6.60;99.90
9564;DHT22;4820;50.870;4.702;2023-04-03T08:41:36;6.70;99.90
9564;DHT22;4820;50.870;4.702;2023-04-03T08:44:15;6.80;99.90
9564;DHT22;4820;50.870;4.702;2023-04-03T08:47:11;6.80;99.90
9564;DHT22;4820;50.870;4.702;2023-04-03T08:49:49;6.90;99.90
9564;DHT22;4820;50.870;4.702;2023-04-03T08:52:36;6.90;99.90
9564;DHT22;4820;50.870;4.702;2023-04-03T08:58:01;7.10;99.90
9564;DHT22;4820;50.870;4.702;2023-04-03T09:00:46;7.30;99.90
9564;DHT22;4820;50.870;4.702;2023-04-03T09:03:18;7.40;99.90
9564;DHT22;4820;50.870;4.702;2023-04-03T09:06:03;7.50;99.90
9564;DHT22;4820;50.870;4.702;2023-04-03T09:11:25;7.60;99.90
9564;DHT22;4820;50.870;4.702;2023-04-03T09:14:05;7.70;99.90
9564;DHT22;4820;50.870;4.702;2023-04-03T09:16:48;7.70;99.90
9564;DHT22;4820;50.870;4.702;2023-04-03T09:21:45;7.90;99.90
9564;DHT22;4820;50.870;4.702;2023-04-03T09:24:13;7.90;99.90
9564;DHT22;4820;50.870;4.702;2023-04-03T09:26:56;7.90;99.90
9564;DHT22;4820;50.870;4.702;2023-04-03T09:29:26;8.00;99.90
9564;DHT22;4820;50.870;4.702;2023-04-03T09:32:02;8.00;99.90
9564;DHT22;4820;50.870;4.702;2023-04-03T09:34:38;8.00;99.90
9564;DHT22;4820;50.870;4.702;2023-04-03T09:37:06;8.10;99.90
9564;DHT22;4820;50.870;4.702;2023-04-03T09:39:53;8.00;99.90
9564;DHT22;4820;50.870;4.702;2023-04-03T09:42:24;8.10;99.90
9564;DHT22;4820;50.870;4.702;2023-04-03T09:47:32;8.30;99.90
9564;DHT22;4820;50.870;4.702;2023-04-03T09:52:50;8.50;99.90
9564;DHT22;4820;50.870;4.702;2023-04-03T09:55:25;8.60;99.90
9564;DHT22;4820;50.870;4.702;2023-04-03T09:58:04;8.70;99.90
9564;DHT22;4820;50.870;4.702;2023-04-03T10:00:31;8.80;99.90
9564;DHT22;4820;50.870;4.702;2023-04-03T10:03:00;8.90;99.90
9564;DHT22;4820;50.870;4.702;2023-04-03T10:08:15;8.80;99.90
9564;DHT22;4820;50.870;4.702;2023-04-03T10:10:47;8.80;99.90
9564;DHT22;4820;50.870;4.702;2023-04-03T10:13:19;8.70;99.90
9564;DHT22;4820;50.870;4.702;2023-04-03T10:15:51;8.70;99.90
9564;DHT22;4820;50.870;4.702;2023-04-03T10:18:29;8.80;99.90
9564;DHT22;4820;50.870;4.702;2023-04-03T10:21:06;8.90;99.90
9564;DHT22;4820;50.870;4.702;2023-04-03T10:23:42;8.90;99.90
9564;DHT22;4820;50.870;4.702;2023-04-03T10:26:50;8.90;99.90
9564;DHT22;4820;50.870;4.702;2023-04-03T10:32:23;9.00;99.90
9564;DHT22;4820;50.870;4.702;2023-04-03T10:34:57;9.10;99.90
9564;DHT22;4820;50.870;4.702;2023-04-03T10:37:32;9.20;99.90
9564;DHT22;4820;50.870;4.702;2023-04-03T10:40:19;9.30;99.90
9564;DHT22;4820;50.870;4.702;2023-04-03T10:42:56;9.40;99.90
9564;DHT22;4820;50.870;4.702;2023-04-03T10:45:46;9.50;99.90
9564;DHT22;4820;50.870;4.702;2023-04-03T10:48:40;9.50;99.90
9564;DHT22;4820;50.870;4.702;2023-04-03T10:53:55;9.40;99.90
9564;DHT22;4820;50.870;4.702;2023-04-03T10:56:45;9.30;99.90
9564;DHT22;4820;50.870;4.702;2023-04-03T10:59:53;9.30;99.90
9564;DHT22;4820;50.870;4.702;2023-04-03T11:05:01;9.40;97.10
9564;DHT22;4820;50.870;4.702;2023-04-03T11:07:32;9.40;98.40
9564;DHT22;4820;50.870;4.702;2023-04-03T11:10:13;9.40;99.10
9564;DHT22;4820;50.870;4.702;2023-04-03T11:12:49;9.40;98.80
9564;DHT22;4820;50.870;4.702;2023-04-03T11:15:19;9.50;98.90
9564;DHT22;4820;50.870;4.702;2023-04-03T11:17:58;9.60;98.50
9564;DHT22;4820;50.870;4.702;2023-04-03T11:20:30;9.80;98.60
9564;DHT22;4820;50.870;4.702;2023-04-03T11:23:09;9.80;97.20
9564;DHT22;4820;50.870;4.702;2023-04-03T11:25:41;9.90;95.50
9564;DHT22;4820;50.870;4.702;2023-04-03T11:28:13;9.90;92.60
9564;DHT22;4820;50.870;4.702;2023-04-03T11:36:18;9.80;89.50
9564;DHT22;4820;50.870;4.702;2023-04-03T11:38:46;9.80;90.70
9564;DHT22;4820;50.870;4.702;2023-04-03T11:41:13;9.90;91.40
9564;DHT22;4820;50.870;4.702;2023-04-03T11:47:02;9.90;91.00
9564;DHT22;4820;50.870;4.702;2023-04-03T11:50:04;10.00;90.80
9564;DHT22;4820;50.870;4.702;2023-04-03T11:57:44;10.00;90.90
9564;DHT22;4820;50.870;4.702;2023-04-03T12:08:43;10.10;87.00
9564;DHT22;4820;50.870;4.702;2023-04-03T12:16:33;10.10;85.20
9564;DHT22;4820;50.870;4.702;2023-04-03T12:19:31;10.10;85.40
9564;DHT22;4820;50.870;4.702;2023-04-03T12:24:34;10.20;83.00
9564;DHT22;4820;50.870;4.702;2023-04-03T12:39:51;10.40;79.30
9564;DHT22;4820;50.870;4.702;2023-04-03T12:45:21;10.40;78.20
9564;DHT22;4820;50.870;4.702;2023-04-03T12:47:50;10.50;78.00
9564;DHT22;4820;50.870;4.702;2023-04-03T12:50:28;10.50;76.60
9564;DHT22;4820;50.870;4.702;2023-04-03T12:53:18;10.50;77.20
9564;DHT22;4820;50.870;4.702;2023-04-03T12:55:45;10.50;75.00
9564;DHT22;4820;50.870;4.702;2023-04-03T12:58:27;10.50;76.30
9564;DHT22;4820;50.870;4.702;2023-04-03T13:03:28;10.50;77.80
9564;DHT22;4820;50.870;4.702;2023-04-03T13:05:58;10.50;79.10
9564;DHT22;4820;50.870;4.702;2023-04-03T13:08:26;10.60;80.20
9564;DHT22;4820;50.870;4.702;2023-04-03T13:11:01;10.50;80.60
9564;DHT22;4820;50.870;4.702;2023-04-03T13:13:28;10.60;80.50
9564;DHT22;4820;50.870;4.702;2023-04-03T13:15:54;10.60;81.20
9564;DHT22;4820;50.870;4.702;2023-04-03T13:20:56;10.60;81.60
9564;DHT22;4820;50.870;4.702;2023-04-03T13:23:23;10.60;81.90
9564;DHT22;4820;50.870;4.702;2023-04-03T13:25:49;10.50;82.10
9564;DHT22;4820;50.870;4.702;2023-04-03T13:28:21;10.50;82.20
9564;DHT22;4820;50.870;4.702;2023-04-03T13:33:30;10.40;82.80
9564;DHT22;4820;50.870;4.702;2023-04-03T13:36:27;10.50;83.10
9564;DHT22;4820;50.870;4.702;2023-04-03T13:39:00;10.60;81.80
9564;DHT22;4820;50.870;4.702;2023-04-03T13:41:30;10.60;79.20
9564;DHT22;4820;50.870;4.702;2023-04-03T13:46:52;10.60;76.20
9564;DHT22;4820;50.870;4.702;2023-04-03T13:49:35;10.60;76.70
9564;DHT22;4820;50.870;4.702;2023-04-03T13:52:17;10.60;76.20
9564;DHT22;4820;50.870;4.702;2023-04-03T13:54:51;10.70;76.80
9564;DHT22;4820;50.870;4.702;2023-04-03T13:57:17;10.80;75.70
9564;DHT22;4820;50.870;4.702;2023-04-03T13:59:44;10.90;75.30
9564;DHT22;4820;50.870;4.702;2023-04-03T14:02:17;10.90;76.60
9564;DHT22;4820;50.870;4.702;2023-04-03T14:07:09;10.90;75.10
9564;DHT22;4820;50.870;4.702;2023-04-03T14:09:35;10.90;75.40
9564;DHT22;4820;50.870;4.702;2023-04-03T14:12:13;10.80;76.70
9564;DHT22;4820;50.870;4.702;2023-04-03T14:14:42;10.90;76.70
9564;DHT22;4820;50.870;4.702;2023-04-03T14:17:17;10.70;75.10
9564;DHT22;4820;50.870;4.702;2023-04-03T14:19:45;10.70;74.20
9564;DHT22;4820;50.870;4.702;2023-04-03T14:22:23;10.70;76.10
9564;DHT22;4820;50.870;4.702;2023-04-03T14:24:50;10.80;74.60
9564;DHT22;4820;50.870;4.702;2023-04-03T14:27:23;10.80;73.80
9564;DHT22;4820;50.870;4.702;2023-04-03T14:29:51;10.80;73.90
9564;DHT22;4820;50.870;4.702;2023-04-03T14:32:21;10.70;75.40
9564;DHT22;4820;50.870;4.702;2023-04-03T14:34:49;10.80;76.60
9564;DHT22;4820;50.870;4.702;2023-04-03T14:37:21;10.70;77.60
9564;DHT22;4820;50.870;4.702;2023-04-03T14:39:48;10.80;79.00
9564;DHT22;4820;50.870;4.702;2023-04-03T14:42:22;10.80;80.00
9564;DHT22;4820;50.870;4.702;2023-04-03T14:44:48;10.70;80.30
9564;DHT22;4820;50.870;4.702;2023-04-03T14:47:17;10.70;80.80
9564;DHT22;4820;50.870;4.702;2023-04-03T14:49:44;10.70;81.40
9564;DHT22;4820;50.870;4.702;2023-04-03T14:52:32;10.80;81.40
9564;DHT22;4820;50.870;4.702;2023-04-03T14:54:59;10.80;81.20
9564;DHT22;4820;50.870;4.702;2023-04-03T14:57:27;10.70;81.00
9564;DHT22;4820;50.870;4.702;2023-04-03T14:59:53;10.70;80.60
9564;DHT22;4820;50.870;4.702;2023-04-03T15:02:32;10.70;80.40
9564;DHT22;4820;50.870;4.702;2023-04-03T15:04:59;10.60;80.20
9564;DHT22;4820;50.870;4.702;2023-04-03T15:07:27;10.60;79.90
9564;DHT22;4820;50.870;4.702;2023-04-03T15:09:54;10.70;80.70
9564;DHT22;4820;50.870;4.702;2023-04-03T15:12:24;10.70;81.90
9564;DHT22;4820;50.870;4.702;2023-04-03T15:14:50;10.70;81.70
9564;DHT22;4820;50.870;4.702;2023-04-03T15:17:20;10.70;81.30
9564;DHT22;4820;50.870;4.702;2023-04-03T15:19:46;10.60;81.70
9564;DHT22;4820;50.870;4.702;2023-04-03T15:22:16;10.60;81.80
9564;DHT22;4820;50.870;4.702;2023-04-03T15:24:45;10.50;82.40
9564;DHT22;4820;50.870;4.702;2023-04-03T15:27:12;10.50;82.70
9564;DHT22;4820;50.870;4.702;2023-04-03T15:29:40;10.50;83.50
9564;DHT22;4820;50.870;4.702;2023-04-03T15:32:07;10.40;84.20
9564;DHT22;4820;50.870;4.702;2023-04-03T15:34:34;10.50;85.00
9564;DHT22;4820;50.870;4.702;2023-04-03T15:37:00;10.50;84.00
9564;DHT22;4820;50.870;4.702;2023-04-03T15:39:27;10.50;84.20
9564;DHT22;4820;50.870;4.702;2023-04-03T15:41:54;10.40;83.90
9564;DHT22;4820;50.870;4.702;2023-04-03T15:44:21;10.40;84.40
9564;DHT22;4820;50.870;4.702;2023-04-03T15:46:49;10.40;84.70
9564;DHT22;4820;50.870;4.702;2023-04-03T15:49:17;10.40;85.10
9564;DHT22;4820;50.870;4.702;2023-04-03T15:51:44;10.40;84.50
9564;DHT22;4820;50.870;4.702;2023-04-03T15:54:10;10.40;85.70
9564;DHT22;4820;50.870;4.702;2023-04-03T15:56:36;10.50;85.40
9564;DHT22;4820;50.870;4.702;2023-04-03T15:59:02;10.50;85.80
9564;DHT22;4820;50.870;4.702;2023-04-03T16:01:27;10.50;86.10
9564;DHT22;4820;50.870;4.702;2023-04-03T16:03:54;10.40;86.10
9564;DHT22;4820;50.870;4.702;2023-04-03T16:06:21;10.40;85.70
9564;DHT22;4820;50.870;4.702;2023-04-03T16:08:48;10.30;86.60
9564;DHT22;4820;50.870;4.702;2023-04-03T16:11:15;10.40;86.60
9564;DHT22;4820;50.870;4.702;2023-04-03T16:13:41;10.30;87.20
9564;DHT22;4820;50.870;4.702;2023-04-03T16:16:08;10.30;86.30
9564;DHT22;4820;50.870;4.702;2023-04-03T16:18:35;10.20;86.60
9564;DHT22;4820;50.870;4.702;2023-04-03T16:21:01;10.20;86.20
9564;DHT22;4820;50.870;4.702;2023-04-03T16:23:26;10.20;86.60
9564;DHT22;4820;50.870;4.702;2023-04-03T16:25:52;10.20;87.00
9564;DHT22;4820;50.870;4.702;2023-04-03T16:28:18;10.20;87.40
9564;DHT22;4820;50.870;4.702;2023-04-03T16:30:45;10.20;87.20
9564;DHT22;4820;50.870;4.702;2023-04-03T16:33:12;10.20;87.10
9564;DHT22;4820;50.870;4.702;2023-04-03T16:35:39;10.20;87.90
9564;DHT22;4820;50.870;4.702;2023-04-03T16:38:07;10.20;87.60
9564;DHT22;4820;50.870;4.702;2023-04-03T16:40:33;10.20;87.50
9564;DHT22;4820;50.870;4.702;2023-04-03T16:43:01;10.20;87.40
9564;DHT22;4820;50.870;4.702;2023-04-03T16:45:27;10.20;86.40
9564;DHT22;4820;50.870;4.702;2023-04-03T16:47:54;10.20;86.90
9564;DHT22;4820;50.870;4.702;2023-04-03T16:50:19;10.30;86.60
9564;DHT22;4820;50.870;4.702;2023-04-03T16:52:46;10.30;87.00
9564;DHT22;4820;50.870;4.702;2023-04-03T16:55:13;10.50;86.90
9564;DHT22;4820;50.870;4.702;2023-04-03T16:57:38;10.50;86.30
9564;DHT22;4820;50.870;4.702;2023-04-03T17:00:05;10.40;86.10
9564;DHT22;4820;50.870;4.702;2023-04-03T17:02:32;10.40;86.70
9564;DHT22;4820;50.870;4.702;2023-04-03T17:04:58;10.40;86.20
9564;DHT22;4820;50.870;4.702;2023-04-03T17:07:25;10.50;85.70
9564;DHT22;4820;50.870;4.702;2023-04-03T17:09:51;10.50;86.00
9564;DHT22;4820;50.870;4.702;2023-04-03T17:12:22;10.50;85.70
9564;DHT22;4820;50.870;4.702;2023-04-03T17:14:49;10.50;86.30
9564;DHT22;4820;50.870;4.702;2023-04-03T17:17:20;10.50;85.50
9564;DHT22;4820;50.870;4.702;2023-04-03T17:19:46;10.50;86.10
9564;DHT22;4820;50.870;4.702;2023-04-03T17:22:13;10.60;84.90
9564;DHT22;4820;50.870;4.702;2023-04-03T17:24:41;10.60;85.60
9564;DHT22;4820;50.870;4.702;2023-04-03T17:27:06;10.60;86.10
9564;DHT22;4820;50.870;4.702;2023-04-03T17:29:33;10.60;85.60
9564;DHT22;4820;50.870;4.702;2023-04-03T17:32:00;10.50;85.90
9564;DHT22;4820;50.870;4.702;2023-04-03T17:34:26;10.50;86.10
9564;DHT22;4820;50.870;4.702;2023-04-03T17:36:51;10.40;85.90
9564;DHT22;4820;50.870;4.702;2023-04-03T17:39:17;10.40;86.10
9564;DHT22;4820;50.870;4.702;2023-04-03T17:41:42;10.30;86.10
9564;DHT22;4820;50.870;4.702;2023-04-03T17:44:11;10.20;86.00
9564;DHT22;4820;50.870;4.702;2023-04-03T17:46:37;10.10;86.40
9564;DHT22;4820;50.870;4.702;2023-04-03T17:49:03;10.00;86.10
9564;DHT22;4820;50.870;4.702;2023-04-03T17:51:31;9.90;87.60
9564;DHT22;4820;50.870;4.702;2023-04-03T17:53:59;9.70;87.80
9564;DHT22;4820;50.870;4.702;2023-04-03T17:56:25;9.60;88.50